sensor_id;sensor_type;location;lat;lon;timestamp;temperature;humidity
17845;DHT22;9047;53.486;10.218;2023-06-04T00:00:38;10.80;97.10
17845;DHT22;9047;53.486;10.218;2023-06-04T00:03:06;10.70;97.20
17845;DHT22;9047;53.486;10.218;2023-06-04T00:05:35;10.80;97.40
17845;DHT22;9047;53.486;10.218;2023-06-04T00:08:04;10.70;97.50
17845;DHT22;9047;53.486;10.218;2023-06-04T00:10:31;10.70;97.70
17845;DHT22;9047;53.486;10.218;2023-06-04T00:13:00;10.60;97.90
17845;DHT22;9047;53.486;10.218;2023-06-04T00:15:27;10.60;98.00
17845;DHT22;9047;53.486;10.218;2023-06-04T00:18:05;10.60;98.50
17845;DHT22;9047;53.486;10.218;2023-06-04T00:20:32;10.50;98.40
17845;DHT22;9047;53.486;10.218;2023-06-04T00:23:02;10.50;98.60
17845;DHT22;9047;53.486;10.218;2023-06-04T00:25:29;10.50;98.80
17845;DHT22;9047;53.486;10.218;2023-06-04T00:27:59;10.40;99.00
17845;DHT22;9047;53.486;10.218;2023-06-04T00:30:26;10.40;99.20
17845;DHT22;9047;53.486;10.218;2023-06-04T00:32:53;10.40;99.40
17845;DHT22;9047;53.486;10.218;2023-06-04T00:35:21;10.40;99.50
17845;DHT22;9047;53.486;10.218;2023-06-04T00:37:48;10.20;99.70
17845;DHT22;9047;53.486;10.218;2023-06-04T00:40:17;10.30;99.90
17845;DHT22;9047;53.486;10.218;2023-06-04T00:42:44;10.30;99.90
17845;DHT22;9047;53.486;10.218;2023-06-04T00:45:12;10.30;99.90
17845;DHT22;9047;53.486;10.218;2023-06-04T00:47:39;10.30;99.90
17845;DHT22;9047;53.486;10.218;2023-06-04T00:50:07;10.30;99.90
17845;DHT22;9047;53.486;10.218;2023-06-04T00:52:35;10.30;99.90
17845;DHT22;9047;53.486;10.218;2023-06-04T00:55:05;10.20;99.90
17845;DHT22;9047;53.486;10.218;2023-06-04T00:57:36;10.20;99.90
17845;DHT22;9047;53.486;10.218;2023-06-04T01:00:04;10.20;99.90
17845;DHT22;9047;53.486;10.218;2023-06-04T01:02:38;10.20;99.90
17845;DHT22;9047;53.486;10.218;2023-06-04T01:05:11;10.20;99.90
17845;DHT22;9047;53.486;10.218;2023-06-04T01:07:39;10.20;99.90
17845;DHT22;9047;53.486;10.218;2023-06-04T01:10:11;10.20;99.90
17845;DHT22;9047;53.486;10.218;2023-06-04T01:12:41;10.30;99.90
17845;DHT22;9047;53.486;10.218;2023-06-04T01:15:09;10.10;99.90
17845;DHT22;9047;53.486;10.218;2023-06-04T01:17:39;10.10;99.90
17845;DHT22;9047;53.486;10.218;2023-06-04T01:23:13;10.10;99.90
17845;DHT22;9047;53.486;10.218;2023-06-04T01:25:41;10.00;99.90
17845;DHT22;9047;53.486;10.218;2023-06-04T01:28:13;10.00;99.90
17845;DHT22;9047;53.486;10.218;2023-06-04T01:30:44;9.90;99.90
17845;DHT22;9047;53.486;10.218;2023-06-04T01:33:12;9.80;99.90
17845;DHT22;9047;53.486;10.218;2023-06-04T01:35:39;9.90;99.90
17845;DHT22;9047;53.486;10.218;2023-06-04T01:38:07;9.80;99.90
17845;DHT22;9047;53.486;10.218;2023-06-04T01:40:34;9.80;99.90
17845;DHT22;9047;53.486;10.218;2023-06-04T01:43:03;9.70;99.90
17845;DHT22;9047;53.486;10.218;2023-06-04T01:45:31;9.70;99.90
17845;DHT22;9047;53.486;10.218;2023-06-04T01:48:01;9.70;99.90
17845;DHT22;9047;53.486;10.218;2023-06-04T01:50:28;9.70;99.90
17845;DHT22;9047;53.486;10.218;2023-06-04T01:52:56;9.70;99.90
17845;DHT22;9047;53.486;10.218;2023-06-04T01:55:23;9.60;99.90
17845;DHT22;9047;53.486;10.218;2023-06-04T01:57:51;9.50;99.90
17845;DHT22;9047;53.486;10.218;2023-06-04T02:00:19;9.50;99.90
17845;DHT22;9047;53.486;10.218;2023-06-04T02:02:48;9.50;99.90
17845;DHT22;9047;53.486;10.218;2023-06-04T02:05:15;9.50;99.90
17845;DHT22;9047;53.486;10.218;2023-06-04T02:07:43;9.50;99.90
17845;DHT22;9047;53.486;10.218;2023-06-04T02:10:11;9.50;99.90
17845;DHT22;9047;53.486;10.218;2023-06-04T02:12:40;9.50;99.90
17845;DHT22;9047;53.486;10.218;2023-06-04T02:15:11;9.50;99.90
17845;DHT22;9047;53.486;10.218;2023-06-04T02:17:38;9.50;99.90
17845;DHT22;9047;53.486;10.218;2023-06-04T02:20:10;9.40;99.90
17845;DHT22;9047;53.486;10.218;2023-06-04T02:22:37;9.40;99.90
17845;DHT22;9047;53.486;10.218;2023-06-04T02:25:08;9.30;99.90
17845;DHT22;9047;53.486;10.218;2023-06-04T02:27:36;9.30;99.90
17845;DHT22;9047;53.486;10.218;2023-06-04T02:30:04;9.30;99.90
17845;DHT22;9047;53.486;10.218;2023-06-04T02:32:32;9.30;99.90
17845;DHT22;9047;53.486;10.218;2023-06-04T02:35:01;9.20;99.90
17845;DHT22;9047;53.486;10.218;2023-06-04T02:37:30;9.30;99.90
17845;DHT22;9047;53.486;10.218;2023-06-04T02:39:57;9.20;99.90
17845;DHT22;9047;53.486;10.218;2023-06-04T02:42:26;9.20;99.90
17845;DHT22;9047;53.486;10.218;2023-06-04T02:44:54;9.20;99.90
17845;DHT22;9047;53.486;10.218;2023-06-04T02:47:21;9.20;99.90
17845;DHT22;9047;53.486;10.218;2023-06-04T02:49:47;9.20;99.90
17845;DHT22;9047;53.486;10.218;2023-06-04T02:52:14;9.20;99.90
17845;DHT22;9047;53.486;10.218;2023-06-04T02:54:43;9.20;99.90
17845;DHT22;9047;53.486;10.218;2023-06-04T02:57:11;9.20;99.90
17845;DHT22;9047;53.486;10.218;2023-06-04T02:59:38;9.20;99.90
17845;DHT22;9047;53.486;10.218;2023-06-04T03:02:07;9.10;99.90
17845;DHT22;9047;53.486;10.218;2023-06-04T03:04:35;9.10;99.90
17845;DHT22;9047;53.486;10.218;2023-06-04T03:07:02;9.10;99.90
17845;DHT22;9047;53.486;10.218;2023-06-04T03:09:30;9.10;99.90
17845;DHT22;9047;53.486;10.218;2023-06-04T03:12:01;9.00;99.90
17845;DHT22;9047;53.486;10.218;2023-06-04T03:14:28;9.10;99.90
17845;DHT22;9047;53.486;10.218;2023-06-04T03:16:58;9.00;99.90
17845;DHT22;9047;53.486;10.218;2023-06-04T03:19:34;9.00;99.90
17845;DHT22;9047;53.486;10.218;2023-06-04T03:22:05;8.90;99.90
17845;DHT22;9047;53.486;10.218;2023-06-04T03:24:33;8.90;99.90
17845;DHT22;9047;53.486;10.218;2023-06-04T03:27:05;8.90;99.90
17845;DHT22;9047;53.486;10.218;2023-06-04T03:29:33;9.00;99.90
17845;DHT22;9047;53.486;10.218;2023-06-04T03:32:00;9.00;99.90
17845;DHT22;9047;53.486;10.218;2023-06-04T03:34:28;9.00;99.90
17845;DHT22;9047;53.486;10.218;2023-06-04T03:36:59;9.00;99.90
17845;DHT22;9047;53.486;10.218;2023-06-04T03:39:26;9.00;99.90
17845;DHT22;9047;53.486;10.218;2023-06-04T03:41:55;9.00;99.90
17845;DHT22;9047;53.486;10.218;2023-06-04T03:44:24;9.00;99.90
17845;DHT22;9047;53.486;10.218;2023-06-04T03:46:51;9.00;99.90
17845;DHT22;9047;53.486;10.218;2023-06-04T03:49:18;9.10;99.90
17845;DHT22;9047;53.486;10.218;2023-06-04T03:51:45;9.00;99.90
17845;DHT22;9047;53.486;10.218;2023-06-04T03:54:13;9.00;99.90
17845;DHT22;9047;53.486;10.218;2023-06-04T03:56:43;9.00;99.90
17845;DHT22;9047;53.486;10.218;2023-06-04T03:59:14;9.00;99.90
17845;DHT22;9047;53.486;10.218;2023-06-04T04:01:43;9.00;99.90
17845;DHT22;9047;53.486;10.218;2023-06-04T04:04:10;9.00;99.90
17845;DHT22;9047;53.486;10.218;2023-06-04T04:06:37;9.00;99.90
17845;DHT22;9047;53.486;10.218;2023-06-04T04:09:04;9.10;99.90
17845;DHT22;9047;53.486;10.218;2023-06-04T04:11:32;9.20;99.90
17845;DHT22;9047;53.486;10.218;2023-06-04T04:13:59;9.20;99.90
17845;DHT22;9047;53.486;10.218;2023-06-04T04:16:27;9.30;99.90
17845;DHT22;9047;53.486;10.218;2023-06-04T04:18:56;9.30;99.90
17845;DHT22;9047;53.486;10.218;2023-06-04T04:21:23;9.50;99.90
17845;DHT22;9047;53.486;10.218;2023-06-04T04:23:50;9.50;99.90
17845;DHT22;9047;53.486;10.218;2023-06-04T04:26:18;9.60;99.90
17845;DHT22;9047;53.486;10.218;2023-06-04T04:28:45;9.70;99.90
17845;DHT22;9047;53.486;10.218;2023-06-04T04:31:12;9.80;99.90
17845;DHT22;9047;53.486;10.218;2023-06-04T04:33:42;9.90;99.90
17845;DHT22;9047;53.486;10.218;2023-06-04T04:36:14;10.10;99.90
17845;DHT22;9047;53.486;10.218;2023-06-04T04:38:41;10.20;99.90
17845;DHT22;9047;53.486;10.218;2023-06-04T04:41:10;10.30;99.90
17845;DHT22;9047;53.486;10.218;2023-06-04T04:43:38;10.40;99.90
17845;DHT22;9047;53.486;10.218;2023-06-04T04:46:06;10.50;99.90
17845;DHT22;9047;53.486;10.218;2023-06-04T04:48:33;10.50;99.90
17845;DHT22;9047;53.486;10.218;2023-06-04T04:51:00;10.50;99.90
17845;DHT22;9047;53.486;10.218;2023-06-04T04:53:30;10.60;99.90
17845;DHT22;9047;53.486;10.218;2023-06-04T04:55:57;10.60;99.90
17845;DHT22;9047;53.486;10.218;2023-06-04T04:58:24;10.60;99.90
17845;DHT22;9047;53.486;10.218;2023-06-04T05:00:51;10.70;99.90
17845;DHT22;9047;53.486;10.218;2023-06-04T05:03:18;10.70;99.90
17845;DHT22;9047;53.486;10.218;2023-06-04T05:05:45;10.80;99.90
17845;DHT22;9047;53.486;10.218;2023-06-04T05:08:12;10.80;99.90
17845;DHT22;9047;53.486;10.218;2023-06-04T05:10:41;10.90;99.90
17845;DHT22;9047;53.486;10.218;2023-06-04T05:13:09;10.90;99.90
17845;DHT22;9047;53.486;10.218;2023-06-04T05:15:36;11.10;99.90
17845;DHT22;9047;53.486;10.218;2023-06-04T05:18:07;11.10;99.90
17845;DHT22;9047;53.486;10.218;2023-06-04T05:20:34;11.30;99.90
17845;DHT22;9047;53.486;10.218;2023-06-04T05:23:03;11.30;99.90
17845;DHT22;9047;53.486;10.218;2023-06-04T05:25:30;11.40;99.90
17845;DHT22;9047;53.486;10.218;2023-06-04T05:27:59;11.40;99.90
17845;DHT22;9047;53.486;10.218;2023-06-04T05:30:26;11.60;99.90
17845;DHT22;9047;53.486;10.218;2023-06-04T05:32:53;11.70;99.90
17845;DHT22;9047;53.486;10.218;2023-06-04T05:35:20;11.80;99.90
17845;DHT22;9047;53.486;10.218;2023-06-04T05:37:47;11.80;99.90
17845;DHT22;9047;53.486;10.218;2023-06-04T05:40:19;12.00;99.90
17845;DHT22;9047;53.486;10.218;2023-06-04T05:42:46;12.00;99.90
17845;DHT22;9047;53.486;10.218;2023-06-04T05:45:15;12.10;99.90
17845;DHT22;9047;53.486;10.218;2023-06-04T05:47:42;12.20;99.90
17845;DHT22;9047;53.486;10.218;2023-06-04T05:50:09;12.40;99.90
17845;DHT22;9047;53.486;10.218;2023-06-04T05:52:36;12.40;99.90
17845;DHT22;9047;53.486;10.218;2023-06-04T05:55:06;12.60;99.90
17845;DHT22;9047;53.486;10.218;2023-06-04T05:57:34;12.80;99.90
17845;DHT22;9047;53.486;10.218;2023-06-04T06:00:01;13.00;99.90
17845;DHT22;9047;53.486;10.218;2023-06-04T06:02:31;13.10;99.90
17845;DHT22;9047;53.486;10.218;2023-06-04T06:04:58;13.10;99.90
17845;DHT22;9047;53.486;10.218;2023-06-04T06:07:25;13.20;99.90
17845;DHT22;9047;53.486;10.218;2023-06-04T06:09:52;13.30;99.90
17845;DHT22;9047;53.486;10.218;2023-06-04T06:12:19;13.50;99.90
17845;DHT22;9047;53.486;10.218;2023-06-04T06:14:47;13.60;99.90
17845;DHT22;9047;53.486;10.218;2023-06-04T06:17:14;13.80;99.90
17845;DHT22;9047;53.486;10.218;2023-06-04T06:19:43;14.00;99.90
17845;DHT22;9047;53.486;10.218;2023-06-04T06:22:11;14.20;99.90
17845;DHT22;9047;53.486;10.218;2023-06-04T06:24:40;14.60;99.90
17845;DHT22;9047;53.486;10.218;2023-06-04T06:27:07;15.20;99.90
17845;DHT22;9047;53.486;10.218;2023-06-04T06:29:34;16.10;99.90
17845;DHT22;9047;53.486;10.218;2023-06-04T06:32:02;17.20;99.90
17845;DHT22;9047;53.486;10.218;2023-06-04T06:34:30;18.20;99.90
17845;DHT22;9047;53.486;10.218;2023-06-04T06:36:59;19.20;99.90
17845;DHT22;9047;53.486;10.218;2023-06-04T06:39:26;19.90;98.70
17845;DHT22;9047;53.486;10.218;2023-06-04T06:41:53;20.60;96.70
17845;DHT22;9047;53.486;10.218;2023-06-04T06:44:20;21.00;96.30
17845;DHT22;9047;53.486;10.218;2023-06-04T06:46:47;21.50;95.20
17845;DHT22;9047;53.486;10.218;2023-06-04T06:49:15;21.90;94.20
17845;DHT22;9047;53.486;10.218;2023-06-04T06:51:42;22.40;92.60
17845;DHT22;9047;53.486;10.218;2023-06-04T06:54:12;22.80;90.70
17845;DHT22;9047;53.486;10.218;2023-06-04T06:56:41;23.20;88.90
17845;DHT22;9047;53.486;10.218;2023-06-04T06:59:09;23.20;88.50
17845;DHT22;9047;53.486;10.218;2023-06-04T07:01:36;23.30;86.50
17845;DHT22;9047;53.486;10.218;2023-06-04T07:04:04;23.50;87.10
17845;DHT22;9047;53.486;10.218;2023-06-04T07:06:34;23.70;85.10
17845;DHT22;9047;53.486;10.218;2023-06-04T07:09:03;23.90;85.10
17845;DHT22;9047;53.486;10.218;2023-06-04T07:11:34;24.20;83.10
17845;DHT22;9047;53.486;10.218;2023-06-04T07:14:04;24.40;82.60
17845;DHT22;9047;53.486;10.218;2023-06-04T07:16:31;24.60;80.80
17845;DHT22;9047;53.486;10.218;2023-06-04T07:18:58;24.50;80.80
17845;DHT22;9047;53.486;10.218;2023-06-04T07:21:25;24.60;81.70
17845;DHT22;9047;53.486;10.218;2023-06-04T07:23:51;24.70;81.80
17845;DHT22;9047;53.486;10.218;2023-06-04T07:26:24;25.00;79.70
17845;DHT22;9047;53.486;10.218;2023-06-04T07:29:00;25.10;79.80
17845;DHT22;9047;53.486;10.218;2023-06-04T07:31:27;25.00;78.30
17845;DHT22;9047;53.486;10.218;2023-06-04T07:33:55;25.20;75.30
17845;DHT22;9047;53.486;10.218;2023-06-04T07:36:25;25.30;74.70
17845;DHT22;9047;53.486;10.218;2023-06-04T07:38:52;25.40;75.10
17845;DHT22;9047;53.486;10.218;2023-06-04T07:41:20;25.40;73.40
17845;DHT22;9047;53.486;10.218;2023-06-04T07:43:47;25.50;73.70
17845;DHT22;9047;53.486;10.218;2023-06-04T07:46:17;25.50;73.70
17845;DHT22;9047;53.486;10.218;2023-06-04T07:48:44;25.50;72.10
17845;DHT22;9047;53.486;10.218;2023-06-04T07:51:13;25.60;72.00
17845;DHT22;9047;53.486;10.218;2023-06-04T07:53:41;25.40;71.80
17845;DHT22;9047;53.486;10.218;2023-06-04T07:56:10;25.30;73.00
17845;DHT22;9047;53.486;10.218;2023-06-04T07:58:37;25.30;73.90
17845;DHT22;9047;53.486;10.218;2023-06-04T08:01:04;25.40;73.70
17845;DHT22;9047;53.486;10.218;2023-06-04T08:03:34;25.60;72.70
17845;DHT22;9047;53.486;10.218;2023-06-04T08:06:01;25.70;71.60
17845;DHT22;9047;53.486;10.218;2023-06-04T08:08:29;25.60;70.90
17845;DHT22;9047;53.486;10.218;2023-06-04T08:10:56;25.60;69.60
17845;DHT22;9047;53.486;10.218;2023-06-04T08:13:23;25.50;71.00
17845;DHT22;9047;53.486;10.218;2023-06-04T08:15:50;25.50;72.20
17845;DHT22;9047;53.486;10.218;2023-06-04T08:18:17;25.50;70.80
17845;DHT22;9047;53.486;10.218;2023-06-04T08:20:46;25.50;68.00
17845;DHT22;9047;53.486;10.218;2023-06-04T08:23:12;25.20;67.90
17845;DHT22;9047;53.486;10.218;2023-06-04T08:25:39;24.60;70.70
17845;DHT22;9047;53.486;10.218;2023-06-04T08:28:06;24.00;70.70
17845;DHT22;9047;53.486;10.218;2023-06-04T08:30:35;23.60;72.70
17845;DHT22;9047;53.486;10.218;2023-06-04T08:33:04;23.20;70.60
17845;DHT22;9047;53.486;10.218;2023-06-04T08:35:32;22.90;73.30
17845;DHT22;9047;53.486;10.218;2023-06-04T08:38:01;22.80;74.70
17845;DHT22;9047;53.486;10.218;2023-06-04T08:40:29;22.50;74.00
17845;DHT22;9047;53.486;10.218;2023-06-04T08:42:58;22.30;74.80
17845;DHT22;9047;53.486;10.218;2023-06-04T08:45:27;22.10;73.40
17845;DHT22;9047;53.486;10.218;2023-06-04T08:47:57;22.00;75.20
17845;DHT22;9047;53.486;10.218;2023-06-04T08:50:25;22.00;75.90
17845;DHT22;9047;53.486;10.218;2023-06-04T08:52:53;21.90;75.90
17845;DHT22;9047;53.486;10.218;2023-06-04T08:55:23;21.80;75.10
17845;DHT22;9047;53.486;10.218;2023-06-04T08:57:51;21.80;73.90
17845;DHT22;9047;53.486;10.218;2023-06-04T09:00:20;21.70;75.00
17845;DHT22;9047;53.486;10.218;2023-06-04T09:02:50;21.60;75.60
17845;DHT22;9047;53.486;10.218;2023-06-04T09:05:20;21.60;76.00
17845;DHT22;9047;53.486;10.218;2023-06-04T09:07:48;21.60;76.60
17845;DHT22;9047;53.486;10.218;2023-06-04T09:10:18;21.60;76.60
17845;DHT22;9047;53.486;10.218;2023-06-04T09:12:51;21.60;76.80
17845;DHT22;9047;53.486;10.218;2023-06-04T09:15:20;21.60;76.70
17845;DHT22;9047;53.486;10.218;2023-06-04T09:17:47;21.70;76.00
17845;DHT22;9047;53.486;10.218;2023-06-04T09:20:19;21.70;74.80
17845;DHT22;9047;53.486;10.218;2023-06-04T09:22:46;21.70;75.60
17845;DHT22;9047;53.486;10.218;2023-06-04T09:25:20;21.80;74.50
17845;DHT22;9047;53.486;10.218;2023-06-04T09:27:52;21.90;74.20
17845;DHT22;9047;53.486;10.218;2023-06-04T09:30:21;21.90;74.80
17845;DHT22;9047;53.486;10.218;2023-06-04T09:32:49;21.80;74.90
17845;DHT22;9047;53.486;10.218;2023-06-04T09:35:17;21.80;74.20
17845;DHT22;9047;53.486;10.218;2023-06-04T09:37:52;21.80;74.80
17845;DHT22;9047;53.486;10.218;2023-06-04T09:40:22;21.80;72.10
17845;DHT22;9047;53.486;10.218;2023-06-04T09:42:55;21.80;73.10
17845;DHT22;9047;53.486;10.218;2023-06-04T09:45:29;21.80;71.10
17845;DHT22;9047;53.486;10.218;2023-06-04T09:47:58;21.90;71.60
17845;DHT22;9047;53.486;10.218;2023-06-04T09:50:26;21.80;70.30
17845;DHT22;9047;53.486;10.218;2023-06-04T09:52:53;21.90;69.30
17845;DHT22;9047;53.486;10.218;2023-06-04T09:55:20;21.90;70.60
17845;DHT22;9047;53.486;10.218;2023-06-04T09:57:49;21.80;69.70
17845;DHT22;9047;53.486;10.218;2023-06-04T10:00:22;21.80;69.80
17845;DHT22;9047;53.486;10.218;2023-06-04T10:02:51;21.80;70.40
17845;DHT22;9047;53.486;10.218;2023-06-04T10:05:21;21.90;69.50
17845;DHT22;9047;53.486;10.218;2023-06-04T10:07:51;21.80;70.30
17845;DHT22;9047;53.486;10.218;2023-06-04T10:10:20;21.80;71.30
17845;DHT22;9047;53.486;10.218;2023-06-04T10:12:51;21.90;71.90
17845;DHT22;9047;53.486;10.218;2023-06-04T10:15:23;22.00;72.80
17845;DHT22;9047;53.486;10.218;2023-06-04T10:17:51;22.00;72.70
17845;DHT22;9047;53.486;10.218;2023-06-04T10:20:19;22.00;72.10
17845;DHT22;9047;53.486;10.218;2023-06-04T10:22:48;22.10;72.20
17845;DHT22;9047;53.486;10.218;2023-06-04T10:25:18;22.10;72.30
17845;DHT22;9047;53.486;10.218;2023-06-04T10:27:46;22.10;72.80
17845;DHT22;9047;53.486;10.218;2023-06-04T10:30:13;22.10;72.60
17845;DHT22;9047;53.486;10.218;2023-06-04T10:32:42;22.30;72.00
17845;DHT22;9047;53.486;10.218;2023-06-04T10:35:10;22.30;72.40
17845;DHT22;9047;53.486;10.218;2023-06-04T10:37:38;22.30;73.00
17845;DHT22;9047;53.486;10.218;2023-06-04T10:40:06;22.40;71.90
17845;DHT22;9047;53.486;10.218;2023-06-04T10:42:38;22.40;71.50
17845;DHT22;9047;53.486;10.218;2023-06-04T10:45:08;22.30;71.40
17845;DHT22;9047;53.486;10.218;2023-06-04T10:47:36;22.30;71.20
17845;DHT22;9047;53.486;10.218;2023-06-04T10:50:10;22.30;70.80
17845;DHT22;9047;53.486;10.218;2023-06-04T10:52:37;22.30;70.40
17845;DHT22;9047;53.486;10.218;2023-06-04T10:55:08;22.40;70.80
17845;DHT22;9047;53.486;10.218;2023-06-04T10:57:35;22.50;70.60
17845;DHT22;9047;53.486;10.218;2023-06-04T11:00:08;22.50;71.10
17845;DHT22;9047;53.486;10.218;2023-06-04T11:02:36;22.60;71.20
17845;DHT22;9047;53.486;10.218;2023-06-04T11:05:10;22.70;71.10
17845;DHT22;9047;53.486;10.218;2023-06-04T11:07:42;22.80;70.40
17845;DHT22;9047;53.486;10.218;2023-06-04T11:10:12;22.90;70.20
17845;DHT22;9047;53.486;10.218;2023-06-04T11:12:43;23.00;69.90
17845;DHT22;9047;53.486;10.218;2023-06-04T11:15:10;23.00;69.30
17845;DHT22;9047;53.486;10.218;2023-06-04T11:17:48;23.10;70.70
17845;DHT22;9047;53.486;10.218;2023-06-04T11:20:21;23.20;69.40
17845;DHT22;9047;53.486;10.218;2023-06-04T11:22:53;23.20;69.90
17845;DHT22;9047;53.486;10.218;2023-06-04T11:25:22;23.30;70.00
17845;DHT22;9047;53.486;10.218;2023-06-04T11:27:55;23.40;69.20
17845;DHT22;9047;53.486;10.218;2023-06-04T11:30:24;23.50;68.00
17845;DHT22;9047;53.486;10.218;2023-06-04T11:33:00;23.40;67.80
17845;DHT22;9047;53.486;10.218;2023-06-04T11:35:39;23.40;68.00
17845;DHT22;9047;53.486;10.218;2023-06-04T11:43:47;23.50;68.00
17845;DHT22;9047;53.486;10.218;2023-06-04T11:46:14;23.50;69.50
17845;DHT22;9047;53.486;10.218;2023-06-04T11:48:42;23.60;68.20
17845;DHT22;9047;53.486;10.218;2023-06-04T11:51:12;23.60;67.40
17845;DHT22;9047;53.486;10.218;2023-06-04T11:53:40;23.60;68.00
17845;DHT22;9047;53.486;10.218;2023-06-04T11:56:08;23.70;67.80
17845;DHT22;9047;53.486;10.218;2023-06-04T11:58:37;23.70;69.50
17845;DHT22;9047;53.486;10.218;2023-06-04T12:01:06;23.80;68.80
17845;DHT22;9047;53.486;10.218;2023-06-04T12:03:35;23.90;67.40
17845;DHT22;9047;53.486;10.218;2023-06-04T12:06:17;23.90;65.70
17845;DHT22;9047;53.486;10.218;2023-06-04T12:08:46;23.90;66.70
17845;DHT22;9047;53.486;10.218;2023-06-04T12:11:30;23.80;66.40
17845;DHT22;9047;53.486;10.218;2023-06-04T12:14:03;23.80;66.00
17845;DHT22;9047;53.486;10.218;2023-06-04T12:16:32;23.80;66.40
17845;DHT22;9047;53.486;10.218;2023-06-04T12:19:06;23.80;67.10
17845;DHT22;9047;53.486;10.218;2023-06-04T12:21:38;23.90;66.20
17845;DHT22;9047;53.486;10.218;2023-06-04T12:24:09;23.90;67.50
17845;DHT22;9047;53.486;10.218;2023-06-04T12:26:36;23.90;66.20
17845;DHT22;9047;53.486;10.218;2023-06-04T12:29:09;23.90;66.50
17845;DHT22;9047;53.486;10.218;2023-06-04T12:31:38;24.00;65.70
17845;DHT22;9047;53.486;10.218;2023-06-04T12:34:09;24.00;66.20
17845;DHT22;9047;53.486;10.218;2023-06-04T12:36:39;24.10;65.70
17845;DHT22;9047;53.486;10.218;2023-06-04T12:39:06;24.10;64.60
17845;DHT22;9047;53.486;10.218;2023-06-04T12:41:34;24.10;65.80
17845;DHT22;9047;53.486;10.218;2023-06-04T12:44:06;24.20;66.60
17845;DHT22;9047;53.486;10.218;2023-06-04T12:46:33;24.30;66.20
17845;DHT22;9047;53.486;10.218;2023-06-04T12:49:00;24.30;66.90
17845;DHT22;9047;53.486;10.218;2023-06-04T12:51:27;24.40;66.10
17845;DHT22;9047;53.486;10.218;2023-06-04T12:53:57;24.30;66.60
17845;DHT22;9047;53.486;10.218;2023-06-04T12:56:24;24.30;65.40
17845;DHT22;9047;53.486;10.218;2023-06-04T12:58:52;24.40;65.20
17845;DHT22;9047;53.486;10.218;2023-06-04T13:01:18;24.30;64.60
17845;DHT22;9047;53.486;10.218;2023-06-04T13:03:46;24.20;65.30
17845;DHT22;9047;53.486;10.218;2023-06-04T13:06:14;24.10;65.00
17845;DHT22;9047;53.486;10.218;2023-06-04T13:08:41;24.20;65.20
17845;DHT22;9047;53.486;10.218;2023-06-04T13:11:11;24.20;64.80
17845;DHT22;9047;53.486;10.218;2023-06-04T13:13:39;24.20;64.70
17845;DHT22;9047;53.486;10.218;2023-06-04T13:16:07;24.20;65.60
17845;DHT22;9047;53.486;10.218;2023-06-04T13:18:34;24.20;65.90
17845;DHT22;9047;53.486;10.218;2023-06-04T13:21:01;24.30;66.10
17845;DHT22;9047;53.486;10.218;2023-06-04T13:23:28;24.30;66.50
17845;DHT22;9047;53.486;10.218;2023-06-04T13:25:55;24.30;66.30
17845;DHT22;9047;53.486;10.218;2023-06-04T13:28:25;24.40;66.00
17845;DHT22;9047;53.486;10.218;2023-06-04T13:30:54;24.40;65.90
17845;DHT22;9047;53.486;10.218;2023-06-04T13:33:21;24.50;67.10
17845;DHT22;9047;53.486;10.218;2023-06-04T13:35:48;24.50;66.10
17845;DHT22;9047;53.486;10.218;2023-06-04T13:38:15;24.50;66.30
17845;DHT22;9047;53.486;10.218;2023-06-04T13:40:42;24.50;66.30
17845;DHT22;9047;53.486;10.218;2023-06-04T13:43:13;24.40;65.40
17845;DHT22;9047;53.486;10.218;2023-06-04T13:45:42;24.40;65.60
17845;DHT22;9047;53.486;10.218;2023-06-04T13:48:12;24.50;66.20
17845;DHT22;9047;53.486;10.218;2023-06-04T13:50:39;24.50;66.10
17845;DHT22;9047;53.486;10.218;2023-06-04T13:53:09;24.40;65.90
17845;DHT22;9047;53.486;10.218;2023-06-04T13:55:36;24.40;66.60
17845;DHT22;9047;53.486;10.218;2023-06-04T13:58:06;24.40;66.30
17845;DHT22;9047;53.486;10.218;2023-06-04T14:00:36;24.40;66.80
17845;DHT22;9047;53.486;10.218;2023-06-04T14:03:07;24.50;66.10
17845;DHT22;9047;53.486;10.218;2023-06-04T14:05:39;24.60;65.90
17845;DHT22;9047;53.486;10.218;2023-06-04T14:08:06;24.60;65.40
17845;DHT22;9047;53.486;10.218;2023-06-04T14:10:33;24.60;66.70
17845;DHT22;9047;53.486;10.218;2023-06-04T14:13:01;24.70;66.80
17845;DHT22;9047;53.486;10.218;2023-06-04T14:15:28;24.70;64.60
17845;DHT22;9047;53.486;10.218;2023-06-04T14:17:57;24.60;64.20
17845;DHT22;9047;53.486;10.218;2023-06-04T14:20:28;24.40;64.70
17845;DHT22;9047;53.486;10.218;2023-06-04T14:22:55;24.40;65.10
17845;DHT22;9047;53.486;10.218;2023-06-04T14:25:22;24.30;64.70
17845;DHT22;9047;53.486;10.218;2023-06-04T14:27:50;24.20;65.10
17845;DHT22;9047;53.486;10.218;2023-06-04T14:30:18;24.20;65.30
17845;DHT22;9047;53.486;10.218;2023-06-04T14:32:45;24.20;65.80
17845;DHT22;9047;53.486;10.218;2023-06-04T14:35:13;24.10;64.60
17845;DHT22;9047;53.486;10.218;2023-06-04T14:37:41;24.10;64.30
17845;DHT22;9047;53.486;10.218;2023-06-04T14:40:10;24.10;64.80
17845;DHT22;9047;53.486;10.218;2023-06-04T14:42:37;24.20;65.30
17845;DHT22;9047;53.486;10.218;2023-06-04T14:45:05;24.20;65.10
17845;DHT22;9047;53.486;10.218;2023-06-04T14:47:34;24.30;65.20
17845;DHT22;9047;53.486;10.218;2023-06-04T14:50:01;24.30;65.00
17845;DHT22;9047;53.486;10.218;2023-06-04T14:52:28;24.30;64.90
17845;DHT22;9047;53.486;10.218;2023-06-04T14:55:00;24.40;65.10
17845;DHT22;9047;53.486;10.218;2023-06-04T14:57:27;24.40;65.10
17845;DHT22;9047;53.486;10.218;2023-06-04T14:59:54;24.30;66.00
17845;DHT22;9047;53.486;10.218;2023-06-04T15:02:22;24.40;64.90
17845;DHT22;9047;53.486;10.218;2023-06-04T15:04:49;24.40;64.30
17845;DHT22;9047;53.486;10.218;2023-06-04T15:07:16;24.20;64.90
17845;DHT22;9047;53.486;10.218;2023-06-04T15:09:44;24.20;65.70
17845;DHT22;9047;53.486;10.218;2023-06-04T15:12:15;24.20;65.70
17845;DHT22;9047;53.486;10.218;2023-06-04T15:14:45;24.20;66.30
17845;DHT22;9047;53.486;10.218;2023-06-04T15:17:13;24.20;66.80
17845;DHT22;9047;53.486;10.218;2023-06-04T15:19:42;24.30;65.90
17845;DHT22;9047;53.486;10.218;2023-06-04T15:22:09;24.30;66.70
17845;DHT22;9047;53.486;10.218;2023-06-04T15:24:36;24.40;67.70
17845;DHT22;9047;53.486;10.218;2023-06-04T15:27:04;24.30;68.10
17845;DHT22;9047;53.486;10.218;2023-06-04T15:29:34;24.20;68.10
17845;DHT22;9047;53.486;10.218;2023-06-04T15:32:01;24.00;67.70
17845;DHT22;9047;53.486;10.218;2023-06-04T15:34:30;23.90;68.50
17845;DHT22;9047;53.486;10.218;2023-06-04T15:36:57;23.80;68.90
17845;DHT22;9047;53.486;10.218;2023-06-04T15:39:25;23.80;70.10
17845;DHT22;9047;53.486;10.218;2023-06-04T15:41:52;23.80;69.60
17845;DHT22;9047;53.486;10.218;2023-06-04T15:44:19;23.90;69.30
17845;DHT22;9047;53.486;10.218;2023-06-04T15:46:50;23.90;68.40
17845;DHT22;9047;53.486;10.218;2023-06-04T15:49:19;23.90;68.10
17845;DHT22;9047;53.486;10.218;2023-06-04T15:51:46;23.90;68.90